createdAt,value
2022-12-31T00:01:51.391Z,25.80
2022-12-31T00:04:18.448Z,26.20
2022-12-31T00:06:46.105Z,24.70
2022-12-31T00:09:13.064Z,24.60
2022-12-31T00:11:39.883Z,25.27
2022-12-31T00:14:07.512Z,26.13
2022-12-31T00:16:36.976Z,33.58
2022-12-31T00:19:05.255Z,28.33
2022-12-31T00:21:33.533Z,27.45
2022-12-31T00:24:00.649Z,24.50
2022-12-31T00:26:30.693Z,23.52
2022-12-31T00:28:59.440Z,25.55
2022-12-31T00:31:32.173Z,28.63
2022-12-31T00:33:59.980Z,26.08
2022-12-31T00:36:30.030Z,26.75
2022-12-31T00:38:58.091Z,22.77
2022-12-31T00:41:26.865Z,25.67
2022-12-31T00:43:54.481Z,27.38
2022-12-31T00:46:21.793Z,22.60
2022-12-31T00:48:48.821Z,24.83
2022-12-31T00:51:19.374Z,26.20
2022-12-31T00:53:46.306Z,22.65
2022-12-31T00:56:16.393Z,24.92
2022-12-31T00:58:43.478Z,24.80
2022-12-31T01:01:17.305Z,33.58
2022-12-31T01:03:44.628Z,26.25
2022-12-31T01:06:11.412Z,25.08
2022-12-31T01:08:38.475Z,26.65
2022-12-31T01:11:24.254Z,28.63
2022-12-31T01:13:59.985Z,24.52
2022-12-31T01:16:33.172Z,25.35
2022-12-31T01:19:02.469Z,29.40
2022-12-31T01:21:30.470Z,27.67
2022-12-31T01:23:58.883Z,30.30
2022-12-31T01:26:26.439Z,26.40
2022-12-31T01:28:53.477Z,25.92
2022-12-31T01:31:21.773Z,29.55
2022-12-31T01:33:49.054Z,25.88
2022-12-31T01:36:25.312Z,30.38
2022-12-31T01:38:57.283Z,29.25
2022-12-31T01:41:30.057Z,32.15
2022-12-31T01:44:02.308Z,28.65
2022-12-31T01:46:44.677Z,26.50
2022-12-31T01:49:20.585Z,29.13
2022-12-31T01:51:53.557Z,27.50
2022-12-31T01:54:23.021Z,26.95
2022-12-31T01:56:52.132Z,30.48
2022-12-31T01:59:21.995Z,28.17
2022-12-31T02:01:52.724Z,28.25
2022-12-31T02:04:22.501Z,28.92
2022-12-31T02:06:54.092Z,27.83
2022-12-31T02:09:21.249Z,30.08
2022-12-31T02:11:48.143Z,30.17
2022-12-31T02:14:22.305Z,32.22
2022-12-31T02:16:49.053Z,29.83
2022-12-31T02:19:34.386Z,28.90
2022-12-31T02:22:18.949Z,28.65
2022-12-31T02:25:07.545Z,26.05
2022-12-31T02:27:52.466Z,20.33
2022-12-31T02:30:24.937Z,24.70
2022-12-31T02:33:22.026Z,21.88
2022-12-31T02:35:59.710Z,19.17
2022-12-31T02:38:33.079Z,22.88
2022-12-31T02:41:00.507Z,19.55
2022-12-31T02:43:27.373Z,20.35
2022-12-31T02:46:13.119Z,24.73
2022-12-31T02:48:55.290Z,22.35
2022-12-31T02:51:45.771Z,26.08
2022-12-31T02:54:27.778Z,26.33
2022-12-31T02:57:10.008Z,27.30
2022-12-31T02:59:55.814Z,28.48
2022-12-31T03:02:24.784Z,33.80
2022-12-31T03:04:54.381Z,31.13
2022-12-31T03:07:24.125Z,31.42
2022-12-31T03:09:51.258Z,30.60
2022-12-31T03:12:39.330Z,31.45
2022-12-31T03:15:19.824Z,28.95
2022-12-31T03:17:59.095Z,25.17
2022-12-31T03:21:08.627Z,28.42
2022-12-31T03:23:35.576Z,31.30
2022-12-31T03:26:09.325Z,31.83
2022-12-31T03:28:36.547Z,30.85
2022-12-31T03:31:03.694Z,31.73
2022-12-31T03:33:37.017Z,26.80
2022-12-31T03:36:12.039Z,27.85
2022-12-31T03:38:39.056Z,30.52
2022-12-31T03:41:06.236Z,30.95
2022-12-31T03:43:32.941Z,29.50
2022-12-31T03:46:01.529Z,34.97
2022-12-31T03:48:28.793Z,30.20
2022-12-31T03:50:55.697Z,27.35
2022-12-31T03:53:22.467Z,34.10
2022-12-31T03:55:53.439Z,31.08
2022-12-31T03:58:20.440Z,43.28
2022-12-31T04:00:47.215Z,38.45
2022-12-31T04:03:14.101Z,35.70
2022-12-31T04:05:41.201Z,36.42
2022-12-31T04:08:07.937Z,36.97
2022-12-31T04:10:34.935Z,34.17
2022-12-31T04:13:04.578Z,36.08
2022-12-31T04:15:32.068Z,28.63
2022-12-31T04:17:58.823Z,33.70
2022-12-31T04:20:25.910Z,30.63
2022-12-31T04:22:52.692Z,26.95
2022-12-31T04:25:19.469Z,24.63
2022-12-31T04:27:46.209Z,27.15
2022-12-31T04:30:13.913Z,23.70
2022-12-31T04:32:41.656Z,17.75
2022-12-31T04:35:09.406Z,17.17
2022-12-31T04:37:36.279Z,19.85
2022-12-31T04:40:06.240Z,20.40
2022-12-31T04:42:34.525Z,20.20
2022-12-31T04:45:01.384Z,23.38
2022-12-31T04:47:28.126Z,20.98
2022-12-31T04:49:54.919Z,8.30
2022-12-31T04:52:21.923Z,3.05
2022-12-31T04:54:48.739Z,3.33
2022-12-31T04:57:15.534Z,2.83
2022-12-31T04:59:42.288Z,3.17
2022-12-31T05:02:09.661Z,2.60
2022-12-31T05:04:36.620Z,5.30
2022-12-31T05:07:03.510Z,2.90
2022-12-31T05:09:31.023Z,2.83
2022-12-31T05:11:57.882Z,3.15
2022-12-31T05:14:24.644Z,2.33
2022-12-31T05:16:51.400Z,2.40
2022-12-31T05:19:18.268Z,2.22
2022-12-31T05:22:04.961Z,2.55
2022-12-31T05:24:31.787Z,2.85
2022-12-31T05:26:58.529Z,2.50
2022-12-31T05:29:25.283Z,3.30
2022-12-31T05:31:52.942Z,2.85
2022-12-31T05:34:19.756Z,4.07
2022-12-31T05:36:46.490Z,2.63
2022-12-31T05:39:13.255Z,2.50
2022-12-31T05:41:39.991Z,2.53
2022-12-31T05:44:06.716Z,2.20
2022-12-31T05:46:33.518Z,3.70
2022-12-31T05:49:00.297Z,2.75
2022-12-31T05:51:27.037Z,2.60
2022-12-31T05:53:53.940Z,2.30
2022-12-31T05:56:21.852Z,2.63
2022-12-31T05:58:48.640Z,2.20
2022-12-31T06:01:15.418Z,2.67
2022-12-31T06:03:42.233Z,3.67
2022-12-31T06:06:09.068Z,2.33
2022-12-31T06:08:35.778Z,4.78
2022-12-31T06:11:02.748Z,8.95
2022-12-31T06:13:29.930Z,17.17
2022-12-31T06:15:56.762Z,22.83
2022-12-31T06:18:23.653Z,29.77
2022-12-31T06:20:50.377Z,25.00
2022-12-31T06:23:17.125Z,23.23
2022-12-31T06:25:43.874Z,23.90
2022-12-31T06:28:17.822Z,28.90
2022-12-31T06:30:47.380Z,48.47
2022-12-31T06:33:14.324Z,56.30
2022-12-31T06:35:41.039Z,34.08
2022-12-31T06:38:07.833Z,32.13
2022-12-31T06:40:37.512Z,33.28
2022-12-31T06:43:05.790Z,36.47
2022-12-31T06:45:32.523Z,41.38
2022-12-31T06:47:59.330Z,25.05
2022-12-31T06:50:26.143Z,29.65
2022-12-31T06:52:53.816Z,28.67
2022-12-31T06:55:21.026Z,19.77
2022-12-31T06:57:48.117Z,20.63
2022-12-31T07:00:15.540Z,25.52
2022-12-31T07:03:01.602Z,28.38
2022-12-31T07:05:52.698Z,23.10
2022-12-31T07:08:38.071Z,28.98
2022-12-31T07:11:10.892Z,25.50
2022-12-31T07:13:48.737Z,25.98
2022-12-31T07:16:46.281Z,20.73
2022-12-31T07:19:37.306Z,22.63
2022-12-31T07:22:04.411Z,25.52
2022-12-31T07:24:31.343Z,27.33
2022-12-31T07:27:19.738Z,27.92
2022-12-31T07:30:29.196Z,28.17
2022-12-31T07:33:07.454Z,26.48
2022-12-31T07:36:10.608Z,27.13
2022-12-31T07:38:40.148Z,31.00
2022-12-31T07:41:21.812Z,32.15
2022-12-31T07:44:00.228Z,30.63
2022-12-31T07:46:35.826Z,31.15
2022-12-31T07:49:04.217Z,33.45
2022-12-31T07:51:31.241Z,23.05
2022-12-31T07:53:58.057Z,26.48
2022-12-31T07:56:24.870Z,28.90
2022-12-31T07:59:29.255Z,32.63
2022-12-31T08:02:16.926Z,34.13
2022-12-31T08:05:01.676Z,37.08
2022-12-31T08:07:52.752Z,29.55
2022-12-31T08:10:48.428Z,28.75
2022-12-31T08:13:16.561Z,32.78
2022-12-31T08:15:43.643Z,36.55
2022-12-31T08:18:10.845Z,32.72
2022-12-31T08:20:55.394Z,32.38
2022-12-31T08:23:32.575Z,29.80
2022-12-31T08:26:24.137Z,25.48
2022-12-31T08:29:01.299Z,26.77
2022-12-31T08:31:51.887Z,32.33
2022-12-31T08:34:35.335Z,34.53
2022-12-31T08:37:11.241Z,38.67
2022-12-31T08:39:49.794Z,37.63
2022-12-31T08:42:32.536Z,27.05
2022-12-31T08:45:08.393Z,21.52
2022-12-31T08:48:04.995Z,26.27
2022-12-31T08:50:32.068Z,20.23
2022-12-31T08:52:59.294Z,22.48
2022-12-31T08:55:26.327Z,24.43
2022-12-31T08:58:11.876Z,21.42
2022-12-31T09:00:39.312Z,11.23
2022-12-31T09:03:28.505Z,4.97
2022-12-31T09:06:26.359Z,6.10
2022-12-31T09:08:58.946Z,20.43
2022-12-31T09:11:33.758Z,19.88
2022-12-31T09:14:15.336Z,25.95
2022-12-31T09:16:58.213Z,20.48
2022-12-31T09:19:25.241Z,16.98
2022-12-31T09:21:52.162Z,14.73
2022-12-31T09:24:19.124Z,17.55
2022-12-31T09:27:00.414Z,13.63
2022-12-31T09:29:27.142Z,19.13
2022-12-31T09:32:12.218Z,13.57
2022-12-31T09:34:53.900Z,6.20
2022-12-31T09:37:35.197Z,4.07
2022-12-31T09:40:23.105Z,5.40
2022-12-31T09:43:14.437Z,6.13
2022-12-31T09:46:03.045Z,7.30
2022-12-31T09:49:02.865Z,19.40
2022-12-31T09:51:44.939Z,22.33
2022-12-31T09:54:38.034Z,18.75
2022-12-31T09:57:19.900Z,11.80
2022-12-31T09:59:56.192Z,13.80
2022-12-31T10:02:41.759Z,19.67
2022-12-31T10:05:20.580Z,18.90
2022-12-31T10:08:24.709Z,17.90
2022-12-31T10:11:01.916Z,20.00
2022-12-31T10:13:56.290Z,17.08
2022-12-31T10:16:29.148Z,16.80
2022-12-31T10:19:13.835Z,19.60
2022-12-31T10:22:07.321Z,13.48
2022-12-31T10:24:51.145Z,15.30
2022-12-31T10:27:51.926Z,20.77
2022-12-31T10:30:24.318Z,14.13
2022-12-31T10:33:05.856Z,7.97
2022-12-31T10:35:53.539Z,10.82
2022-12-31T10:38:34.128Z,9.48
2022-12-31T10:41:31.756Z,15.07
2022-12-31T10:44:07.102Z,15.63
2022-12-31T10:47:27.942Z,16.30
2022-12-31T10:50:10.033Z,12.82
2022-12-31T10:53:01.286Z,10.43
2022-12-31T10:55:33.847Z,4.00
2022-12-31T10:58:19.293Z,3.50
2022-12-31T11:01:04.231Z,3.15
2022-12-31T11:04:08.413Z,4.28
2022-12-31T11:06:35.140Z,7.07
2022-12-31T11:09:52.499Z,2.70
2022-12-31T11:13:16.641Z,3.60
2022-12-31T11:15:50.340Z,3.00
2022-12-31T11:18:39.147Z,3.45
2022-12-31T11:21:56.924Z,3.28
2022-12-31T11:24:29.256Z,5.53
2022-12-31T11:26:55.990Z,3.03
2022-12-31T11:29:31.172Z,2.42
2022-12-31T11:32:22.710Z,2.50
2022-12-31T11:34:52.031Z,2.17
2022-12-31T11:37:45.666Z,2.70
2022-12-31T11:40:33.882Z,2.30
2022-12-31T11:43:02.400Z,2.40
2022-12-31T11:45:50.935Z,2.65
2022-12-31T11:48:43.695Z,2.80
2022-12-31T11:51:19.261Z,2.63
2022-12-31T11:54:22.576Z,2.33
2022-12-31T11:57:27.475Z,3.28
2022-12-31T12:00:20.877Z,2.97
2022-12-31T12:02:53.912Z,2.00
2022-12-31T12:05:23.529Z,2.33
2022-12-31T12:07:51.023Z,2.40
2022-12-31T12:10:44.262Z,3.35
2022-12-31T12:13:18.451Z,2.60
2022-12-31T12:15:49.311Z,3.40
2022-12-31T12:18:47.286Z,5.70
2022-12-31T12:21:21.481Z,3.97
2022-12-31T12:24:06.061Z,2.88
2022-12-31T12:26:37.735Z,2.22
2022-12-31T12:29:23.374Z,2.67
2022-12-31T12:32:00.648Z,2.72
2022-12-31T12:34:38.980Z,2.90
2022-12-31T12:37:26.406Z,2.50
2022-12-31T12:40:21.250Z,3.42
2022-12-31T12:42:49.649Z,3.05
2022-12-31T12:45:29.113Z,4.72
2022-12-31T12:47:59.782Z,3.20
2022-12-31T12:50:38.465Z,4.30
2022-12-31T12:53:28.319Z,3.22
2022-12-31T12:56:03.131Z,2.58
2022-12-31T12:58:56.977Z,3.80
2022-12-31T13:01:42.299Z,4.03
2022-12-31T13:04:34.895Z,12.82
2022-12-31T13:07:17.107Z,6.47
2022-12-31T13:10:34.258Z,6.00
2022-12-31T13:13:37.951Z,5.88
2022-12-31T13:16:16.647Z,5.67
2022-12-31T13:18:51.501Z,6.90
2022-12-31T13:21:29.353Z,4.43
2022-12-31T13:24:06.042Z,2.50
2022-12-31T13:27:07.195Z,3.08
2022-12-31T13:29:35.849Z,2.80
2022-12-31T13:32:05.437Z,5.55
2022-12-31T13:34:38.947Z,8.02
2022-12-31T13:37:20.161Z,10.60
2022-12-31T13:39:50.058Z,8.18
2022-12-31T13:42:37.387Z,3.47
2022-12-31T13:45:16.765Z,2.88
2022-12-31T13:47:54.457Z,2.75
2022-12-31T13:51:05.269Z,2.20
2022-12-31T13:54:01.923Z,2.47
2022-12-31T13:56:35.997Z,2.13
2022-12-31T13:59:31.573Z,1.98
2022-12-31T14:02:08.871Z,2.78
2022-12-31T14:04:53.178Z,2.83
2022-12-31T14:07:26.637Z,2.63
2022-12-31T14:09:55.906Z,4.83
2022-12-31T14:12:25.426Z,9.30
2022-12-31T14:14:54.956Z,14.63
2022-12-31T14:17:33.763Z,21.35
2022-12-31T14:20:13.131Z,11.75
2022-12-31T14:22:51.658Z,16.67
2022-12-31T14:25:24.737Z,17.80
2022-12-31T14:27:54.101Z,15.40
2022-12-31T14:30:23.318Z,12.65
2022-12-31T14:33:11.623Z,17.20
2022-12-31T14:35:49.225Z,4.90
2022-12-31T14:38:15.962Z,12.13
2022-12-31T14:41:20.034Z,14.73
2022-12-31T14:43:58.494Z,11.07
2022-12-31T14:47:00.353Z,7.50
2022-12-31T14:49:35.830Z,4.43
2022-12-31T14:52:22.487Z,3.58
2022-12-31T14:55:00.517Z,3.60
2022-12-31T14:58:01.503Z,4.03
2022-12-31T15:00:36.617Z,5.25
2022-12-31T15:03:03.407Z,9.53
2022-12-31T15:05:38.009Z,11.43
2022-12-31T15:08:33.736Z,11.13
2022-12-31T15:11:01.769Z,17.30
2022-12-31T15:13:52.632Z,21.77
2022-12-31T15:17:17.916Z,20.90
2022-12-31T15:20:17.652Z,24.98
2022-12-31T15:22:49.971Z,25.38
2022-12-31T15:25:40.027Z,19.75
2022-12-31T15:28:35.989Z,21.13
2022-12-31T15:31:29.227Z,18.83
2022-12-31T15:34:21.472Z,20.83
2022-12-31T15:37:01.180Z,21.55
2022-12-31T15:39:30.935Z,14.32
2022-12-31T15:44:51.980Z,22.87
2022-12-31T15:47:55.763Z,16.13
2022-12-31T15:50:23.979Z,24.30
2022-12-31T15:52:57.710Z,20.17
2022-12-31T15:55:30.078Z,20.00
2022-12-31T15:58:03.342Z,14.33
2022-12-31T16:00:57.088Z,15.90
2022-12-31T16:03:26.882Z,14.75
2022-12-31T16:06:12.092Z,8.07
2022-12-31T16:08:43.662Z,12.90
2022-12-31T16:11:10.760Z,17.77
2022-12-31T16:13:41.786Z,118.28
2022-12-31T16:16:22.051Z,111.65
2022-12-31T16:18:53.084Z,35.20
2022-12-31T16:21:37.465Z,21.05
2022-12-31T16:24:28.081Z,17.03
2022-12-31T16:26:57.021Z,16.90
2022-12-31T16:29:24.393Z,18.42
2022-12-31T16:31:53.696Z,22.85
2022-12-31T16:34:26.204Z,23.33
2022-12-31T16:37:03.699Z,22.87
2022-12-31T16:39:33.008Z,18.50
2022-12-31T16:42:14.580Z,19.85
2022-12-31T16:44:41.883Z,31.45
2022-12-31T16:47:15.249Z,22.42
2022-12-31T16:49:42.931Z,20.80
2022-12-31T16:52:32.265Z,22.77
2022-12-31T16:54:59.499Z,22.17
2022-12-31T16:57:29.731Z,24.58
2022-12-31T17:00:03.878Z,22.83
2022-12-31T17:02:38.187Z,24.93
2022-12-31T17:05:18.932Z,21.15
2022-12-31T17:07:46.124Z,21.77
2022-12-31T17:10:23.359Z,30.35
2022-12-31T17:15:44.438Z,26.27
2022-12-31T17:18:21.307Z,24.27
2022-12-31T17:20:53.309Z,32.75
2022-12-31T17:23:26.700Z,27.13
2022-12-31T17:26:03.526Z,27.08
2022-12-31T17:28:42.483Z,30.27
2022-12-31T17:31:38.565Z,28.48
2022-12-31T17:34:13.259Z,30.88
2022-12-31T17:36:53.045Z,26.38
2022-12-31T17:39:22.517Z,18.85
2022-12-31T17:41:51.431Z,21.87
2022-12-31T17:44:24.146Z,24.05
2022-12-31T17:46:51.391Z,26.70
2022-12-31T17:49:21.897Z,26.25
2022-12-31T17:51:48.797Z,26.30
2022-12-31T17:54:17.162Z,25.77
2022-12-31T17:56:45.110Z,30.08
2022-12-31T17:59:18.132Z,47.47
2022-12-31T18:01:45.393Z,39.83
2022-12-31T18:04:18.186Z,36.25
2022-12-31T18:06:45.486Z,23.63
2022-12-31T18:09:12.389Z,25.00
2022-12-31T18:11:40.772Z,39.40
2022-12-31T18:14:08.256Z,35.17
2022-12-31T18:16:35.099Z,36.25
2022-12-31T18:19:01.984Z,37.33
2022-12-31T18:21:34.185Z,34.53
2022-12-31T18:26:29.693Z,30.52
2022-12-31T18:28:58.209Z,33.03
2022-12-31T18:31:30.898Z,27.90
2022-12-31T18:33:59.206Z,28.25
2022-12-31T18:36:27.610Z,27.77
2022-12-31T18:38:54.396Z,37.38
2022-12-31T18:41:24.395Z,28.58
2022-12-31T18:43:51.175Z,28.73
2022-12-31T18:46:22.556Z,40.08
2022-12-31T18:48:49.424Z,32.60
2022-12-31T18:51:19.166Z,38.92
2022-12-31T18:53:45.928Z,38.40
2022-12-31T18:56:16.328Z,31.58
2022-12-31T18:58:44.112Z,32.85
2022-12-31T19:01:37.139Z,34.28
2022-12-31T19:04:13.390Z,28.25
2022-12-31T19:06:40.615Z,28.95
2022-12-31T19:09:23.729Z,32.17
2022-12-31T19:11:54.326Z,33.95
2022-12-31T19:14:24.267Z,31.55
2022-12-31T19:16:53.244Z,24.45
2022-12-31T19:19:20.971Z,18.77
2022-12-31T19:21:47.820Z,14.68
2022-12-31T19:24:26.732Z,22.88
2022-12-31T19:26:54.352Z,24.25
2022-12-31T19:29:28.489Z,19.25
2022-12-31T19:31:55.360Z,30.05
2022-12-31T19:34:22.228Z,45.83
2022-12-31T19:36:49.430Z,37.42
2022-12-31T19:39:19.077Z,33.58
2022-12-31T19:41:49.157Z,36.97
2022-12-31T19:44:21.252Z,30.65
2022-12-31T19:46:49.636Z,33.50
2022-12-31T19:49:18.009Z,34.25
2022-12-31T19:51:44.724Z,35.97
2022-12-31T19:54:13.524Z,34.38
2022-12-31T19:56:40.487Z,30.48
2022-12-31T19:59:09.048Z,34.95
2022-12-31T20:01:35.997Z,37.30
2022-12-31T20:04:03.060Z,44.85
2022-12-31T20:06:29.957Z,47.25
2022-12-31T20:08:56.756Z,34.00
2022-12-31T20:11:25.073Z,40.25
2022-12-31T20:13:53.647Z,33.70
2022-12-31T20:16:23.944Z,38.72
2022-12-31T20:18:51.089Z,39.78
2022-12-31T20:21:20.417Z,33.47
2022-12-31T20:23:48.822Z,38.05
2022-12-31T20:26:16.088Z,41.10
2022-12-31T20:28:43.013Z,34.72
2022-12-31T20:31:12.847Z,35.80
2022-12-31T20:33:39.766Z,33.10
2022-12-31T20:36:09.315Z,32.65
2022-12-31T20:38:36.217Z,38.03
2022-12-31T20:41:08.908Z,32.72
2022-12-31T20:43:36.185Z,33.40
2022-12-31T20:46:12.682Z,33.10
2022-12-31T20:48:41.864Z,48.05
2022-12-31T20:51:08.693Z,62.80
2022-12-31T20:53:35.471Z,50.05
2022-12-31T20:56:06.261Z,46.97
2022-12-31T20:58:33.327Z,57.30
2022-12-31T21:01:00.277Z,51.58
2022-12-31T21:06:14.589Z,57.30
2022-12-31T21:08:41.626Z,52.53
2022-12-31T21:11:27.875Z,45.17
2022-12-31T21:13:55.852Z,48.10
2022-12-31T21:16:22.807Z,46.50
2022-12-31T21:18:49.818Z,48.47
2022-12-31T21:21:16.714Z,51.70
2022-12-31T21:23:43.520Z,50.28
2022-12-31T21:26:10.492Z,64.25
2022-12-31T21:28:37.366Z,63.97
2022-12-31T21:31:06.334Z,68.55
2022-12-31T21:33:33.561Z,71.13
2022-12-31T21:36:04.574Z,67.20
2022-12-31T21:38:31.952Z,66.47
2022-12-31T21:41:03.255Z,70.88
2022-12-31T21:43:30.334Z,54.47
2022-12-31T21:46:05.262Z,56.17
2022-12-31T21:48:32.624Z,57.80
2022-12-31T21:51:14.244Z,55.72
2022-12-31T21:53:41.210Z,57.85
2022-12-31T21:56:09.330Z,60.33
2022-12-31T21:58:38.095Z,54.80
2022-12-31T22:01:24.028Z,61.60
2022-12-31T22:03:50.999Z,59.08
2022-12-31T22:06:23.193Z,59.08
2022-12-31T22:08:52.874Z,58.10
2022-12-31T22:11:21.474Z,59.60
2022-12-31T22:13:48.674Z,65.90
2022-12-31T22:16:17.117Z,78.70
2022-12-31T22:18:44.283Z,74.03
2022-12-31T22:21:20.015Z,67.35
2022-12-31T22:23:49.971Z,65.60
2022-12-31T22:26:18.873Z,57.58
2022-12-31T22:28:46.624Z,63.78
2022-12-31T22:31:16.638Z,64.00
2022-12-31T22:33:44.160Z,56.22
2022-12-31T22:36:13.318Z,58.17
2022-12-31T22:38:40.690Z,59.65
2022-12-31T22:41:13.576Z,56.35
2022-12-31T22:43:42.949Z,57.50
2022-12-31T22:46:15.145Z,62.53
2022-12-31T22:48:42.772Z,56.70
2022-12-31T22:51:11.019Z,63.90
2022-12-31T22:53:39.632Z,61.50
2022-12-31T22:56:06.979Z,85.57
2022-12-31T22:58:33.934Z,107.60
2022-12-31T23:01:03.632Z,145.45
2022-12-31T23:03:30.508Z,108.00
2022-12-31T23:05:57.303Z,95.20
2022-12-31T23:08:24.292Z,100.93
2022-12-31T23:11:05.930Z,90.03
2022-12-31T23:13:58.748Z,86.40
2022-12-31T23:16:47.200Z,106.30
2022-12-31T23:19:33.929Z,290.50
2022-12-31T23:22:19.395Z,448.42
2022-12-31T23:24:46.182Z,365.25
2022-12-31T23:27:12.967Z,211.57
2022-12-31T23:29:46.553Z,96.60
2022-12-31T23:32:15.591Z,289.70
2022-12-31T23:34:43.506Z,408.40
2022-12-31T23:37:10.984Z,317.30
2022-12-31T23:39:37.804Z,393.48
2022-12-31T23:42:04.706Z,323.10
2022-12-31T23:44:31.603Z,303.02
2022-12-31T23:46:58.455Z,239.27
2022-12-31T23:49:25.883Z,232.98
2022-12-31T23:51:52.755Z,280.50
2022-12-31T23:54:19.555Z,281.98
2022-12-31T23:56:46.488Z,280.48
2022-12-31T23:59:13.285Z,277.70
